createdAt,value
2023-02-17T00:03:27.170Z,58.88
2023-02-17T00:08:35.333Z,60.28
2023-02-17T00:13:42.725Z,55.30
2023-02-17T00:18:49.890Z,57.25
2023-02-17T00:23:58.739Z,49.90
2023-02-17T00:29:05.263Z,60.00
2023-02-17T00:34:12.070Z,61.05
2023-02-17T00:39:20.802Z,61.10
2023-02-17T00:44:28.695Z,64.18
2023-02-17T00:49:35.580Z,59.63
2023-02-17T00:54:43.626Z,64.25
2023-02-17T00:59:51.119Z,67.75
2023-02-17T01:04:57.600Z,63.75
2023-02-17T01:10:06.105Z,58.22
2023-02-17T01:15:14.283Z,67.20
2023-02-17T01:20:24.244Z,69.05
2023-02-17T01:25:32.697Z,63.83
2023-02-17T01:30:39.525Z,59.60
2023-02-17T01:35:47.834Z,61.47
2023-02-17T01:40:56.264Z,70.57
2023-02-17T01:46:05.043Z,70.13
2023-02-17T01:51:18.797Z,65.68
2023-02-17T01:56:28.705Z,63.60
2023-02-17T02:01:38.231Z,70.38
2023-02-17T02:06:46.874Z,66.88
2023-02-17T02:11:55.370Z,61.90
2023-02-17T02:17:12.527Z,52.40
2023-02-17T02:22:54.733Z,64.28
2023-02-17T02:28:18.058Z,64.53
2023-02-17T02:33:35.254Z,60.92
2023-02-17T02:38:49.597Z,67.80
2023-02-17T02:43:56.600Z,63.92
2023-02-17T02:49:06.369Z,67.47
2023-02-17T02:54:48.845Z,59.88
2023-02-17T03:00:14.716Z,58.70
2023-02-17T03:05:34.502Z,62.85
2023-02-17T03:10:50.113Z,63.65
2023-02-17T03:15:57.065Z,70.45
2023-02-17T03:21:14.119Z,64.50
2023-02-17T03:26:21.518Z,64.22
2023-02-17T03:31:30.631Z,60.90
2023-02-17T03:41:45.004Z,58.35
2023-02-17T03:46:51.327Z,62.10
2023-02-17T03:51:59.788Z,57.67
2023-02-17T03:57:06.622Z,44.90
2023-02-17T04:02:12.989Z,56.05
2023-02-17T04:07:20.754Z,60.97
2023-02-17T04:12:27.307Z,57.30
2023-02-17T04:17:33.810Z,59.90
2023-02-17T04:22:41.999Z,53.70
2023-02-17T04:27:48.442Z,47.73
2023-02-17T04:32:54.617Z,59.53
2023-02-17T04:38:02.503Z,60.97
2023-02-17T04:43:08.880Z,54.58
2023-02-17T04:48:15.086Z,54.42
2023-02-17T04:53:22.960Z,58.00
2023-02-17T04:58:29.340Z,54.67
2023-02-17T05:03:35.622Z,51.97
2023-02-17T05:08:43.636Z,57.78
2023-02-17T05:13:50.058Z,53.33
2023-02-17T05:18:56.501Z,48.42
2023-02-17T05:24:04.427Z,50.35
2023-02-17T05:29:10.883Z,55.60
2023-02-17T05:34:17.328Z,54.20
2023-02-17T05:39:25.154Z,52.53
2023-02-17T05:44:31.610Z,48.15
2023-02-17T05:49:37.798Z,49.70
2023-02-17T05:54:45.581Z,48.20
2023-02-17T05:59:51.832Z,52.95
2023-02-17T06:04:58.373Z,55.58
2023-02-17T06:10:07.850Z,51.70
2023-02-17T06:15:14.429Z,49.40
2023-02-17T06:20:21.341Z,49.45
2023-02-17T06:25:29.396Z,50.78
2023-02-17T06:30:36.115Z,48.20
2023-02-17T06:35:42.420Z,50.53
2023-02-17T06:40:50.395Z,50.85
2023-02-17T06:45:56.990Z,49.60
2023-02-17T06:51:03.586Z,46.47
2023-02-17T06:56:11.575Z,51.92
2023-02-17T07:01:20.320Z,44.80
2023-02-17T07:06:28.492Z,44.88
2023-02-17T07:11:37.213Z,45.08
2023-02-17T07:16:43.969Z,43.47
2023-02-17T07:21:50.373Z,48.28
2023-02-17T07:26:58.135Z,47.00
2023-02-17T07:32:05.185Z,48.90
2023-02-17T07:37:11.701Z,44.42
2023-02-17T07:42:19.625Z,44.50
2023-02-17T07:47:26.794Z,45.60
2023-02-17T07:52:33.377Z,48.00
2023-02-17T07:57:41.359Z,50.95
2023-02-17T08:02:47.699Z,51.47
2023-02-17T08:08:14.319Z,45.83
2023-02-17T08:13:22.188Z,40.97
2023-02-17T08:18:30.585Z,44.10
2023-02-17T08:23:38.747Z,45.33
2023-02-17T08:28:47.230Z,48.55
2023-02-17T08:33:54.064Z,42.80
2023-02-17T08:39:01.830Z,44.72
2023-02-17T08:44:13.953Z,45.40
2023-02-17T08:49:23.021Z,51.90
2023-02-17T08:59:37.091Z,39.25
2023-02-17T09:04:43.694Z,41.05
2023-02-17T09:09:49.995Z,36.53
2023-02-17T09:14:57.898Z,43.20
2023-02-17T09:20:11.228Z,36.20
2023-02-17T09:26:02.896Z,41.63
2023-02-17T09:31:28.348Z,45.35
2023-02-17T09:36:40.196Z,39.75
2023-02-17T09:41:50.293Z,42.58
2023-02-17T09:47:03.841Z,39.88
2023-02-17T09:52:15.888Z,37.67
2023-02-17T09:57:28.854Z,40.92
2023-02-17T10:02:48.541Z,42.03
2023-02-17T10:08:03.861Z,39.40
2023-02-17T10:13:12.068Z,39.22
2023-02-17T10:18:29.854Z,40.93
2023-02-17T10:23:37.089Z,39.13
2023-02-17T10:29:07.390Z,35.05
2023-02-17T10:34:28.186Z,37.92
2023-02-17T10:39:48.682Z,39.53
2023-02-17T10:45:01.318Z,46.08
2023-02-17T10:50:21.824Z,33.63
2023-02-17T10:55:39.278Z,36.58
2023-02-17T11:00:49.332Z,39.95
2023-02-17T11:06:00.623Z,42.10
2023-02-17T11:11:16.185Z,37.85
2023-02-17T11:16:27.834Z,38.72
2023-02-17T11:21:36.651Z,37.95
2023-02-17T11:26:44.861Z,36.13
2023-02-17T11:31:58.857Z,39.88
2023-02-17T11:37:24.782Z,35.17
2023-02-17T11:42:34.468Z,40.92
2023-02-17T11:48:21.997Z,44.28
2023-02-17T11:53:48.858Z,37.45
2023-02-17T11:59:31.061Z,39.55
2023-02-17T12:04:44.092Z,45.47
2023-02-17T12:10:06.026Z,38.63
2023-02-17T12:15:33.174Z,36.63
2023-02-17T12:20:52.535Z,39.97
2023-02-17T12:26:06.267Z,39.28
2023-02-17T12:31:27.384Z,35.60
2023-02-17T12:36:38.748Z,37.28
2023-02-17T12:41:55.948Z,30.35
2023-02-17T12:47:11.728Z,33.20
2023-02-17T12:52:23.991Z,30.17
2023-02-17T12:57:42.808Z,29.98
2023-02-17T13:02:49.581Z,29.33
2023-02-17T13:08:02.166Z,28.02
2023-02-17T13:13:15.761Z,28.92
2023-02-17T13:18:32.864Z,30.90
2023-02-17T13:23:42.109Z,33.88
2023-02-17T13:34:01.079Z,27.08
2023-02-17T13:39:29.164Z,30.73
2023-02-17T13:44:42.606Z,33.23
2023-02-17T13:49:55.504Z,27.92
2023-02-17T13:55:04.874Z,33.50
2023-02-17T14:00:25.286Z,29.85
2023-02-17T14:05:42.208Z,26.48
2023-02-17T14:10:49.161Z,27.33
2023-02-17T14:16:00.295Z,30.45
2023-02-17T14:21:10.893Z,29.90
2023-02-17T14:26:40.103Z,30.63
2023-02-17T14:31:51.609Z,30.17
2023-02-17T14:37:09.976Z,29.38
2023-02-17T14:42:16.434Z,28.20
2023-02-17T14:47:26.255Z,32.53
2023-02-17T14:52:33.049Z,26.67
2023-02-17T14:57:40.793Z,35.47
2023-02-17T15:02:49.250Z,33.88
2023-02-17T15:07:55.982Z,31.20
2023-02-17T15:13:03.555Z,26.58
2023-02-17T15:18:14.131Z,26.38
2023-02-17T15:23:23.496Z,32.47
2023-02-17T15:28:30.734Z,23.92
2023-02-17T15:33:42.492Z,25.77
2023-02-17T15:38:50.101Z,23.65
2023-02-17T15:43:59.389Z,23.52
2023-02-17T15:49:08.738Z,21.38
2023-02-17T15:59:30.176Z,25.67
2023-02-17T16:04:38.558Z,22.23
2023-02-17T16:09:47.424Z,28.98
2023-02-17T16:14:55.809Z,19.20
2023-02-17T16:20:06.057Z,25.60
2023-02-17T16:25:14.977Z,22.73
2023-02-17T16:30:25.857Z,20.52
2023-02-17T16:35:35.522Z,24.98
2023-02-17T16:40:49.081Z,21.27
2023-02-17T16:45:59.642Z,20.30
2023-02-17T16:51:11.610Z,19.58
2023-02-17T16:56:23.263Z,18.00
2023-02-17T17:01:31.226Z,15.60
2023-02-17T17:06:59.827Z,16.83
2023-02-17T17:12:08.844Z,16.95
2023-02-17T17:17:21.729Z,17.23
2023-02-17T17:22:33.074Z,14.77
2023-02-17T17:27:42.191Z,16.33
2023-02-17T17:38:00.960Z,14.50
2023-02-17T17:43:08.400Z,14.50
2023-02-17T17:48:19.828Z,15.60
2023-02-17T17:53:32.205Z,13.30
2023-02-17T17:58:40.581Z,12.70
2023-02-17T18:03:49.663Z,12.55
2023-02-17T18:09:05.755Z,14.07
2023-02-17T18:14:18.327Z,13.37
2023-02-17T18:19:28.411Z,12.63
2023-02-17T18:24:40.545Z,12.98
2023-02-17T18:29:54.177Z,8.82
2023-02-17T18:35:03.679Z,10.93
2023-02-17T18:45:28.565Z,10.30
2023-02-17T18:50:38.405Z,9.27
2023-02-17T18:55:48.315Z,10.63
2023-02-17T19:00:58.845Z,9.75
2023-02-17T19:06:16.948Z,9.25
2023-02-17T19:11:33.554Z,10.15
2023-02-17T19:16:45.459Z,11.07
2023-02-17T19:21:55.661Z,12.20
2023-02-17T19:27:06.822Z,9.43
2023-02-17T19:32:15.543Z,12.73
2023-02-17T19:42:37.473Z,15.77
2023-02-17T19:47:51.710Z,14.57
2023-02-17T19:53:04.518Z,10.77
2023-02-17T19:58:18.756Z,12.13
2023-02-17T20:03:27.231Z,12.38
2023-02-17T20:08:37.260Z,15.63
2023-02-17T20:13:51.695Z,12.90
2023-02-17T20:19:03.655Z,15.00
2023-02-17T20:24:12.406Z,16.45
2023-02-17T20:29:32.342Z,15.20
2023-02-17T20:34:44.368Z,13.35
2023-02-17T20:39:53.168Z,15.10
2023-02-17T20:45:04.315Z,12.70
2023-02-17T20:50:17.132Z,13.15
2023-02-17T20:55:29.095Z,13.20
2023-02-17T21:00:38.284Z,11.00
2023-02-17T21:05:46.924Z,12.40
2023-02-17T21:10:57.412Z,14.10
2023-02-17T21:16:12.769Z,11.02
2023-02-17T21:21:27.233Z,10.05
2023-02-17T21:26:36.513Z,14.00
2023-02-17T21:31:45.131Z,9.35
2023-02-17T21:36:52.943Z,9.10
2023-02-17T21:42:00.752Z,7.93
2023-02-17T21:47:09.999Z,8.35
2023-02-17T21:57:23.766Z,2.75
2023-02-17T22:02:35.210Z,2.10
2023-02-17T22:07:42.324Z,2.30
2023-02-17T22:12:49.852Z,2.60
2023-02-17T22:17:58.806Z,6.53
2023-02-17T22:23:05.249Z,3.83
2023-02-17T22:28:14.070Z,3.88
2023-02-17T22:33:22.295Z,2.80
2023-02-17T22:38:29.134Z,7.05
2023-02-17T22:43:37.324Z,5.25
2023-02-17T22:48:46.816Z,1.75
2023-02-17T22:53:53.888Z,3.90
2023-02-17T22:59:01.857Z,1.75
2023-02-17T23:04:09.870Z,3.75
2023-02-17T23:09:19.842Z,4.63
2023-02-17T23:14:30.190Z,3.75
2023-02-17T23:19:39.189Z,4.35
2023-02-17T23:24:45.385Z,3.50
2023-02-17T23:29:51.617Z,4.90
2023-02-17T23:34:59.434Z,4.43
2023-02-17T23:40:06.721Z,1.90
2023-02-17T23:45:13.848Z,5.35
2023-02-17T23:50:22.021Z,3.70
2023-02-17T23:55:28.526Z,4.27
